createdAt,value
2017-11-17T00:00:43.496Z,81.80
2017-11-17T00:03:12.342Z,81.80
2017-11-17T00:05:40.364Z,82.00
2017-11-17T00:08:08.899Z,81.90
2017-11-17T00:10:36.375Z,81.80
2017-11-17T00:13:03.822Z,81.80
2017-11-17T00:15:31.308Z,81.80
2017-11-17T00:17:58.761Z,82.00
2017-11-17T00:20:26.294Z,81.90
2017-11-17T00:22:54.499Z,81.60
2017-11-17T00:25:22.518Z,81.40
2017-11-17T00:27:50.423Z,81.20
2017-11-17T00:30:18.253Z,81.00
2017-11-17T00:32:45.959Z,80.90
2017-11-17T00:35:14.615Z,80.60
2017-11-17T00:37:42.417Z,80.70
2017-11-17T00:40:10.745Z,80.60
2017-11-17T00:42:40.526Z,80.60
2017-11-17T00:45:08.425Z,80.50
2017-11-17T00:47:36.733Z,80.40
2017-11-17T00:50:07.164Z,80.10
2017-11-17T00:52:36.061Z,79.90
2017-11-17T00:55:05.685Z,79.90
2017-11-17T00:57:34.201Z,79.80
2017-11-17T01:00:03.610Z,80.30
2017-11-17T01:02:34.906Z,80.10
2017-11-17T01:05:04.376Z,80.10
2017-11-17T01:07:33.478Z,79.80
2017-11-17T01:10:02.543Z,79.00
2017-11-17T01:12:30.537Z,79.00
2017-11-17T01:14:59.788Z,78.60
2017-11-17T01:17:28.349Z,78.60
2017-11-17T01:19:57.395Z,78.40
2017-11-17T01:22:25.453Z,78.40
2017-11-17T01:24:54.664Z,78.50
2017-11-17T01:27:22.977Z,78.40
2017-11-17T01:29:58.811Z,78.40
2017-11-17T01:32:26.828Z,78.20
2017-11-17T01:34:56.107Z,78.00
2017-11-17T01:37:23.933Z,77.90
2017-11-17T01:39:51.646Z,77.80
2017-11-17T01:42:19.256Z,77.90
2017-11-17T01:44:47.950Z,77.70
2017-11-17T01:47:16.881Z,77.60
2017-11-17T01:49:46.220Z,77.50
2017-11-17T01:52:13.980Z,77.50
2017-11-17T01:54:42.847Z,77.40
2017-11-17T01:57:10.381Z,77.40
2017-11-17T01:59:38.498Z,77.20
2017-11-17T02:02:18.619Z,77.20
2017-11-17T02:04:46.153Z,77.00
2017-11-17T02:07:14.164Z,77.00
2017-11-17T02:09:41.676Z,76.90
2017-11-17T02:12:09.908Z,76.80
2017-11-17T02:14:37.475Z,76.80
2017-11-17T02:17:06.054Z,76.60
2017-11-17T02:19:34.695Z,76.50
2017-11-17T02:22:02.908Z,76.60
2017-11-17T02:24:31.026Z,76.60
2017-11-17T02:26:58.540Z,76.50
2017-11-17T02:29:26.435Z,76.60
2017-11-17T02:31:54.311Z,76.50
2017-11-17T02:34:22.639Z,76.50
2017-11-17T02:36:50.079Z,76.40
2017-11-17T02:39:18.893Z,76.40
2017-11-17T02:41:46.788Z,76.40
2017-11-17T02:44:14.237Z,76.20
2017-11-17T02:46:41.730Z,76.30
2017-11-17T02:49:10.459Z,76.20
2017-11-17T02:51:38.575Z,76.20
2017-11-17T02:54:07.521Z,76.00
2017-11-17T02:56:35.007Z,76.70
2017-11-17T02:59:02.763Z,76.10
2017-11-17T03:01:30.914Z,75.90
2017-11-17T03:03:58.477Z,76.10
2017-11-17T03:06:26.290Z,76.30
2017-11-17T03:08:54.135Z,76.50
2017-11-17T03:11:21.615Z,76.40
2017-11-17T03:13:49.863Z,76.10
2017-11-17T03:16:17.324Z,76.10
2017-11-17T03:18:45.310Z,76.00
2017-11-17T03:21:12.819Z,76.10
2017-11-17T03:23:40.295Z,75.80
2017-11-17T03:26:07.967Z,75.80
2017-11-17T03:28:35.947Z,75.40
2017-11-17T03:31:03.944Z,75.10
2017-11-17T03:33:32.712Z,74.80
2017-11-17T03:36:00.173Z,74.70
2017-11-17T03:38:28.417Z,74.70
2017-11-17T03:40:57.148Z,74.70
2017-11-17T03:43:25.361Z,74.50
2017-11-17T03:45:52.998Z,74.50
2017-11-17T03:48:20.474Z,74.40
2017-11-17T03:50:48.401Z,74.50
2017-11-17T03:53:15.850Z,74.50
2017-11-17T03:55:43.333Z,74.30
2017-11-17T03:58:11.252Z,74.20
2017-11-17T04:00:38.718Z,74.20
2017-11-17T04:03:06.781Z,74.20
2017-11-17T04:05:34.230Z,74.10
2017-11-17T04:08:01.910Z,74.20
2017-11-17T04:10:29.667Z,74.30
2017-11-17T04:12:58.647Z,74.20
2017-11-17T04:15:26.339Z,74.20
2017-11-17T04:17:54.693Z,74.10
2017-11-17T04:20:22.138Z,74.10
2017-11-17T04:22:49.605Z,74.10
2017-11-17T04:25:17.672Z,75.10
2017-11-17T04:27:45.453Z,75.00
2017-11-17T04:30:13.331Z,74.80
2017-11-17T04:32:42.094Z,75.60
2017-11-17T04:35:09.792Z,75.00
2017-11-17T04:37:38.434Z,75.00
2017-11-17T04:40:06.304Z,75.00
2017-11-17T04:42:33.832Z,75.00
2017-11-17T04:45:01.792Z,74.80
2017-11-17T04:47:29.264Z,74.80
2017-11-17T04:49:57.225Z,74.60
2017-11-17T04:52:24.781Z,74.60
2017-11-17T04:54:52.221Z,74.60
2017-11-17T04:57:19.698Z,74.70
2017-11-17T04:59:47.362Z,74.70
2017-11-17T05:02:15.326Z,74.70
2017-11-17T05:04:42.753Z,74.60
2017-11-17T05:07:11.389Z,74.60
2017-11-17T05:09:38.849Z,74.60
2017-11-17T05:12:06.615Z,74.50
2017-11-17T05:14:34.397Z,74.50
2017-11-17T05:17:01.910Z,74.20
2017-11-17T05:19:29.365Z,74.10
2017-11-17T05:21:56.893Z,73.90
2017-11-17T05:24:25.099Z,74.10
2017-11-17T05:26:52.897Z,74.10
2017-11-17T05:29:20.863Z,74.00
2017-11-17T05:31:48.691Z,74.10
2017-11-17T05:34:16.795Z,73.90
2017-11-17T05:36:44.330Z,73.60
2017-11-17T05:39:11.778Z,73.50
2017-11-17T05:41:39.234Z,73.20
2017-11-17T05:44:07.202Z,73.80
2017-11-17T05:46:34.647Z,73.40
2017-11-17T05:49:02.697Z,73.30
2017-11-17T05:51:30.902Z,73.50
2017-11-17T05:53:58.368Z,73.40
2017-11-17T05:56:25.848Z,73.60
2017-11-17T05:58:53.403Z,73.40
2017-11-17T06:01:21.269Z,73.30
2017-11-17T06:03:48.704Z,73.80
2017-11-17T06:06:16.695Z,73.70
2017-11-17T06:08:44.163Z,73.10
2017-11-17T06:11:11.682Z,72.90
2017-11-17T06:13:39.239Z,73.20
2017-11-17T06:16:06.950Z,72.70
2017-11-17T06:18:34.402Z,72.70
2017-11-17T06:21:01.907Z,72.60
2017-11-17T06:23:29.350Z,73.20
2017-11-17T06:25:57.078Z,72.70
2017-11-17T06:28:24.546Z,72.30
2017-11-17T06:30:53.319Z,72.80
2017-11-17T06:33:21.172Z,72.00
2017-11-17T06:35:49.052Z,72.20
2017-11-17T06:38:16.612Z,71.80
2017-11-17T06:40:44.843Z,72.00
2017-11-17T06:43:12.309Z,72.00
2017-11-17T06:45:39.757Z,71.60
2017-11-17T06:48:07.236Z,71.30
2017-11-17T06:50:35.025Z,71.10
2017-11-17T06:53:03.029Z,71.70
2017-11-17T06:55:30.486Z,71.90
2017-11-17T06:57:57.961Z,72.30
2017-11-17T07:00:25.415Z,72.70
2017-11-17T07:02:53.384Z,72.90
2017-11-17T07:05:21.867Z,73.10
2017-11-17T07:07:49.933Z,73.10
2017-11-17T07:10:17.424Z,72.90
2017-11-17T07:12:45.363Z,72.60
2017-11-17T07:15:12.817Z,72.40
2017-11-17T07:17:40.509Z,71.60
2017-11-17T07:20:07.964Z,71.40
2017-11-17T07:22:35.425Z,72.20
2017-11-17T07:25:04.286Z,72.30
2017-11-17T07:27:31.982Z,72.40
2017-11-17T07:30:00.014Z,72.60
2017-11-17T07:32:27.610Z,72.30
2017-11-17T07:34:55.360Z,72.00
2017-11-17T07:37:22.917Z,71.80
2017-11-17T07:39:50.350Z,71.80
2017-11-17T07:42:18.043Z,72.30
2017-11-17T07:44:45.907Z,72.70
2017-11-17T07:47:13.489Z,72.50
2017-11-17T07:49:41.404Z,72.30
2017-11-17T07:52:09.314Z,71.80
2017-11-17T07:54:38.266Z,72.00
2017-11-17T07:57:06.483Z,72.10
2017-11-17T07:59:33.939Z,72.10
2017-11-17T08:02:01.806Z,72.00
2017-11-17T08:04:29.244Z,72.10
2017-11-17T08:06:57.116Z,71.80
2017-11-17T08:09:24.542Z,71.70
2017-11-17T08:11:52.021Z,72.10
2017-11-17T08:14:19.588Z,71.80
2017-11-17T08:16:47.656Z,72.40
2017-11-17T08:19:15.490Z,73.00
2017-11-17T08:21:43.051Z,72.90
2017-11-17T08:24:10.611Z,72.80
2017-11-17T08:26:38.410Z,73.00
2017-11-17T08:29:05.846Z,72.20
2017-11-17T08:31:33.906Z,72.30
2017-11-17T08:34:01.804Z,72.60
2017-11-17T08:36:29.245Z,73.00
2017-11-17T08:38:56.709Z,72.50
2017-11-17T08:41:24.467Z,72.40
2017-11-17T08:43:51.902Z,72.60
2017-11-17T08:46:19.357Z,72.60
2017-11-17T08:48:47.467Z,72.80
2017-11-17T08:51:15.735Z,73.40
2017-11-17T08:53:43.174Z,73.50
2017-11-17T08:56:10.643Z,73.70
2017-11-17T08:58:38.145Z,73.60
2017-11-17T09:01:08.014Z,73.50
2017-11-17T09:03:35.685Z,73.60
2017-11-17T09:06:04.383Z,73.60
2017-11-17T09:08:31.844Z,73.60
2017-11-17T09:10:59.279Z,73.40
2017-11-17T09:13:26.799Z,73.20
2017-11-17T09:15:54.235Z,73.20
2017-11-17T09:18:21.722Z,73.20
2017-11-17T09:20:49.314Z,72.90
2017-11-17T09:23:16.751Z,72.30
2017-11-17T09:25:44.541Z,72.00
2017-11-17T09:28:12.564Z,71.90
2017-11-17T09:30:40.358Z,71.20
2017-11-17T09:33:07.803Z,70.90
2017-11-17T09:35:35.591Z,70.70
2017-11-17T09:38:03.025Z,70.50
2017-11-17T09:40:30.491Z,69.70
2017-11-17T09:42:57.927Z,69.50
2017-11-17T09:45:25.537Z,69.50
2017-11-17T09:47:53.767Z,67.50
2017-11-17T09:50:21.871Z,67.40
2017-11-17T09:52:49.309Z,66.80
2017-11-17T09:55:17.041Z,66.70
2017-11-17T09:57:44.496Z,67.20
2017-11-17T10:00:11.975Z,66.20
2017-11-17T10:02:39.858Z,65.60
2017-11-17T10:05:08.249Z,64.60
2017-11-17T10:07:36.626Z,63.80
2017-11-17T10:10:04.071Z,63.40
2017-11-17T10:12:31.622Z,62.70
2017-11-17T10:14:59.083Z,61.00
2017-11-17T10:17:27.062Z,60.60
2017-11-17T10:19:54.500Z,61.00
2017-11-17T10:22:21.975Z,60.90
2017-11-17T10:24:49.440Z,60.60
2017-11-17T10:27:18.101Z,60.50
2017-11-17T10:29:45.606Z,59.80
2017-11-17T10:32:13.834Z,59.70
2017-11-17T10:34:41.819Z,58.30
2017-11-17T10:37:09.531Z,57.90
2017-11-17T10:39:37.462Z,57.70
2017-11-17T10:42:05.779Z,57.10
2017-11-17T10:44:33.345Z,57.10
2017-11-17T10:47:00.822Z,56.60
2017-11-17T10:49:28.924Z,55.90
2017-11-17T10:51:56.365Z,54.30
2017-11-17T10:54:23.850Z,55.00
2017-11-17T10:56:56.763Z,53.20
2017-11-17T10:59:24.219Z,53.10
2017-11-17T11:01:52.018Z,53.10
2017-11-17T11:04:19.529Z,54.00
2017-11-17T11:06:47.335Z,51.70
2017-11-17T11:09:15.676Z,51.00
2017-11-17T11:11:49.007Z,51.10
2017-11-17T11:14:16.747Z,51.20
2017-11-17T11:16:44.213Z,52.20
2017-11-17T11:19:11.794Z,49.70
2017-11-17T11:21:39.279Z,50.10
2017-11-17T11:24:07.703Z,48.90
2017-11-17T11:26:35.254Z,48.90
2017-11-17T11:29:03.095Z,48.90
2017-11-17T11:31:31.652Z,47.60
2017-11-17T11:34:00.130Z,46.80
2017-11-17T11:36:29.096Z,46.80
2017-11-17T11:38:57.106Z,46.70
2017-11-17T11:41:25.673Z,46.30
2017-11-17T11:43:53.120Z,46.30
2017-11-17T11:46:20.631Z,46.90
2017-11-17T11:48:48.811Z,46.90
2017-11-17T11:51:16.883Z,46.30
2017-11-17T11:53:44.370Z,45.20
2017-11-17T11:56:11.824Z,45.90
2017-11-17T11:58:39.315Z,44.10
2017-11-17T12:01:07.976Z,41.50
2017-11-17T12:03:36.401Z,41.40
2017-11-17T12:06:05.308Z,41.00
2017-11-17T12:08:33.087Z,41.70
2017-11-17T12:11:00.549Z,38.90
2017-11-17T12:13:28.015Z,41.50
2017-11-17T12:15:56.384Z,40.80
2017-11-17T12:18:23.972Z,40.20
2017-11-17T12:20:51.698Z,40.60
2017-11-17T12:23:19.194Z,38.50
2017-11-17T12:25:46.663Z,37.80
2017-11-17T12:28:15.447Z,39.70
2017-11-17T12:30:43.370Z,39.70
2017-11-17T12:33:10.825Z,40.60
2017-11-17T12:35:38.731Z,41.10
2017-11-17T12:38:06.201Z,41.90
2017-11-17T12:40:34.524Z,39.00
2017-11-17T12:43:01.999Z,39.00
2017-11-17T12:45:29.442Z,38.50
2017-11-17T12:47:57.238Z,37.40
2017-11-17T12:50:25.180Z,37.80
2017-11-17T12:52:52.875Z,38.00
2017-11-17T12:55:20.391Z,38.80
2017-11-17T12:57:47.946Z,37.30
2017-11-17T13:00:15.443Z,37.30
2017-11-17T13:02:43.403Z,38.80
2017-11-17T13:05:10.873Z,40.10
2017-11-17T13:07:38.723Z,41.40
2017-11-17T13:10:06.176Z,42.50
2017-11-17T13:12:33.648Z,42.70
2017-11-17T13:15:01.106Z,41.10
2017-11-17T13:17:29.838Z,41.70
2017-11-17T13:19:57.275Z,41.50
2017-11-17T13:22:25.768Z,38.60
2017-11-17T13:24:53.249Z,38.50
2017-11-17T13:27:20.767Z,37.90
2017-11-17T13:29:48.599Z,37.70
2017-11-17T13:32:17.080Z,37.60
2017-11-17T13:34:44.909Z,37.80
2017-11-17T13:37:12.470Z,36.80
2017-11-17T13:39:40.386Z,36.10
2017-11-17T13:42:07.897Z,36.80
2017-11-17T13:44:35.453Z,36.60
2017-11-17T13:47:02.910Z,35.50
2017-11-17T13:49:31.031Z,34.70
2017-11-17T13:52:00.516Z,33.80
2017-11-17T13:54:28.007Z,33.20
2017-11-17T13:56:56.390Z,32.40
2017-11-17T13:59:24.903Z,33.20
2017-11-17T14:01:52.823Z,33.20
2017-11-17T14:04:22.079Z,34.10
2017-11-17T14:06:50.098Z,34.10
2017-11-17T14:09:18.696Z,36.00
2017-11-17T14:11:46.935Z,36.80
2017-11-17T14:14:14.400Z,37.40
2017-11-17T14:16:41.862Z,37.10
2017-11-17T14:19:09.330Z,38.60
2017-11-17T14:21:37.788Z,39.20
2017-11-17T14:24:05.232Z,39.10
2017-11-17T14:26:32.690Z,38.80
2017-11-17T14:29:00.458Z,38.90
2017-11-17T14:31:28.367Z,39.30
2017-11-17T14:33:57.624Z,40.00
2017-11-17T14:36:25.112Z,40.30
2017-11-17T14:38:53.450Z,40.90
2017-11-17T14:41:20.994Z,40.80
2017-11-17T14:43:48.424Z,41.00
2017-11-17T14:46:16.254Z,41.40
2017-11-17T14:48:43.742Z,41.40
2017-11-17T14:51:11.470Z,40.90
2017-11-17T14:53:38.935Z,40.90
2017-11-17T14:56:07.156Z,41.10
2017-11-17T14:58:34.711Z,40.60
2017-11-17T15:01:02.402Z,40.30
2017-11-17T15:03:30.379Z,40.80
2017-11-17T15:05:58.614Z,41.20
2017-11-17T15:08:26.091Z,41.70
2017-11-17T15:10:53.632Z,41.50
2017-11-17T15:13:21.740Z,42.50
2017-11-17T15:15:49.181Z,44.10
2017-11-17T15:18:16.665Z,44.50
2017-11-17T15:20:45.096Z,44.70
2017-11-17T15:23:13.163Z,44.70
2017-11-17T15:25:41.088Z,44.30
2017-11-17T15:28:08.547Z,44.70
2017-11-17T15:30:37.253Z,44.90
2017-11-17T15:33:04.703Z,44.80
2017-11-17T15:35:33.374Z,45.40
2017-11-17T15:38:00.807Z,45.40
2017-11-17T15:40:28.277Z,45.40
2017-11-17T15:42:56.237Z,45.90
2017-11-17T15:45:23.712Z,46.60
2017-11-17T15:47:52.414Z,47.10
2017-11-17T15:50:21.096Z,47.90
2017-11-17T15:52:49.330Z,47.80
2017-11-17T15:55:16.807Z,47.80
2017-11-17T15:57:44.482Z,49.00
2017-11-17T16:00:12.803Z,48.90
2017-11-17T16:02:40.714Z,48.90
2017-11-17T16:05:08.690Z,49.20
2017-11-17T16:07:36.700Z,49.10
2017-11-17T16:10:04.182Z,49.00
2017-11-17T16:12:32.315Z,49.60
2017-11-17T16:15:00.613Z,50.10
2017-11-17T16:17:28.543Z,50.00
2017-11-17T16:19:56.857Z,49.00
2017-11-17T16:22:24.584Z,49.00
2017-11-17T16:24:52.854Z,48.90
2017-11-17T16:27:21.458Z,49.30
2017-11-17T16:29:49.312Z,49.20
2017-11-17T16:32:17.898Z,50.40
2017-11-17T16:34:46.420Z,51.40
2017-11-17T16:37:13.917Z,51.40
2017-11-17T16:39:41.384Z,51.80
2017-11-17T16:42:09.615Z,52.20
2017-11-17T16:44:37.181Z,52.20
2017-11-17T16:47:04.688Z,52.40
2017-11-17T16:49:33.588Z,52.10
2017-11-17T16:52:01.064Z,52.10
2017-11-17T16:54:29.410Z,52.00
2017-11-17T16:56:56.845Z,51.80
2017-11-17T16:59:24.376Z,51.80
2017-11-17T17:01:52.583Z,52.30
2017-11-17T17:04:20.666Z,52.70
2017-11-17T17:06:49.475Z,53.00
2017-11-17T17:09:16.959Z,53.00
2017-11-17T17:11:44.423Z,52.90
2017-11-17T17:14:11.884Z,53.10
2017-11-17T17:16:39.760Z,53.10
2017-11-17T17:19:07.222Z,53.10
2017-11-17T17:21:35.382Z,53.90
2017-11-17T17:24:02.855Z,54.20
2017-11-17T17:26:30.876Z,54.30
2017-11-17T17:29:00.248Z,54.50
2017-11-17T17:31:28.224Z,54.60
2017-11-17T17:33:57.168Z,54.60
2017-11-17T17:36:24.643Z,54.60
2017-11-17T17:38:52.195Z,54.70
2017-11-17T17:41:19.662Z,54.60
2017-11-17T17:43:47.185Z,54.70
2017-11-17T17:46:14.623Z,54.80
2017-11-17T17:48:42.217Z,55.20
2017-11-17T17:51:10.129Z,55.40
2017-11-17T17:53:38.171Z,55.50
2017-11-17T17:56:07.044Z,55.60
2017-11-17T17:58:34.491Z,55.60
2017-11-17T18:01:02.796Z,55.50
2017-11-17T18:03:30.721Z,55.20
2017-11-17T18:05:58.822Z,55.20
2017-11-17T18:08:26.295Z,55.30
2017-11-17T18:10:54.882Z,55.20
2017-11-17T18:13:23.092Z,55.30
2017-11-17T18:15:50.573Z,55.30
2017-11-17T18:18:18.033Z,55.40
2017-11-17T18:20:45.706Z,55.50
2017-11-17T18:23:13.155Z,55.50
2017-11-17T18:25:41.269Z,55.40
2017-11-17T18:28:10.332Z,56.00
2017-11-17T18:30:38.202Z,56.00
2017-11-17T18:33:05.652Z,55.20
2017-11-17T18:35:33.448Z,55.00
2017-11-17T18:38:00.934Z,55.00
2017-11-17T18:40:28.415Z,55.00
2017-11-17T18:42:55.869Z,54.90
2017-11-17T18:45:23.525Z,54.90
2017-11-17T18:47:51.450Z,55.00
2017-11-17T18:50:19.918Z,55.20
2017-11-17T18:52:47.410Z,55.20
2017-11-17T18:55:15.252Z,55.40
2017-11-17T18:57:43.572Z,55.70
2017-11-17T19:00:11.808Z,56.40
2017-11-17T19:02:40.677Z,56.30
2017-11-17T19:05:08.979Z,57.20
2017-11-17T19:07:36.931Z,56.60
2017-11-17T19:10:05.207Z,56.30
2017-11-17T19:12:32.672Z,56.20
2017-11-17T19:15:00.114Z,56.30
2017-11-17T19:17:27.779Z,56.90
2017-11-17T19:19:56.206Z,56.10
2017-11-17T19:22:24.001Z,56.20
2017-11-17T19:24:52.509Z,56.20
2017-11-17T19:27:20.919Z,56.10
2017-11-17T19:29:49.159Z,56.00
2017-11-17T19:32:17.890Z,56.30
2017-11-17T19:34:46.125Z,56.30
2017-11-17T19:37:14.399Z,56.50
2017-11-17T19:39:42.629Z,56.50
2017-11-17T19:42:10.112Z,56.50
2017-11-17T19:44:37.928Z,56.40
2017-11-17T19:47:05.376Z,56.60
2017-11-17T19:49:33.343Z,56.70
2017-11-17T19:52:00.892Z,56.50
2017-11-17T19:54:28.450Z,56.60
2017-11-17T19:56:55.938Z,56.80
2017-11-17T19:59:24.171Z,57.10
2017-11-17T20:01:54.035Z,57.30
2017-11-17T20:04:21.533Z,57.30
2017-11-17T20:06:50.376Z,57.50
2017-11-17T20:09:17.947Z,57.50
2017-11-17T20:11:45.452Z,57.40
2017-11-17T20:14:12.908Z,57.60
2017-11-17T20:16:41.422Z,57.30
2017-11-17T20:19:08.883Z,57.20
2017-11-17T20:21:36.732Z,57.10
2017-11-17T20:24:04.282Z,57.50
2017-11-17T20:26:32.293Z,57.70
2017-11-17T20:28:59.739Z,57.30
2017-11-17T20:31:27.870Z,56.80
2017-11-17T20:33:56.043Z,56.90
2017-11-17T20:36:24.157Z,56.20
2017-11-17T20:38:52.263Z,56.50
2017-11-17T20:41:20.493Z,56.60
2017-11-17T20:43:48.141Z,56.30
2017-11-17T20:46:15.601Z,56.30
2017-11-17T20:48:43.404Z,56.50
2017-11-17T20:51:12.132Z,56.60
2017-11-17T20:53:39.631Z,56.60
2017-11-17T20:56:07.269Z,56.40
2017-11-17T20:58:34.716Z,56.40
2017-11-17T21:01:02.934Z,56.50
2017-11-17T21:03:30.483Z,56.20
2017-11-17T21:05:58.469Z,56.30
2017-11-17T21:08:25.945Z,56.30
2017-11-17T21:10:54.277Z,56.10
2017-11-17T21:13:21.816Z,56.10
2017-11-17T21:15:49.508Z,56.00
2017-11-17T21:18:16.955Z,56.30
2017-11-17T21:20:44.461Z,56.30
2017-11-17T21:23:12.831Z,56.40
2017-11-17T21:25:41.766Z,56.40
2017-11-17T21:28:09.729Z,56.40
2017-11-17T21:30:37.720Z,56.50
2017-11-17T21:33:05.184Z,56.60
2017-11-17T21:35:33.467Z,56.70
2017-11-17T21:38:00.937Z,56.60
2017-11-17T21:40:29.894Z,57.00
2017-11-17T21:42:57.439Z,57.00
2017-11-17T21:45:24.962Z,56.70
2017-11-17T21:47:52.467Z,56.90
2017-11-17T21:50:20.444Z,56.80
2017-11-17T21:52:48.292Z,56.80
2017-11-17T21:55:15.795Z,57.00
2017-11-17T21:57:43.310Z,57.10
2017-11-17T22:00:10.865Z,56.60
2017-11-17T22:02:38.961Z,57.30
2017-11-17T22:05:06.422Z,57.30
2017-11-17T22:07:34.458Z,57.20
2017-11-17T22:10:01.924Z,57.20
2017-11-17T22:12:29.398Z,57.30
2017-11-17T22:14:57.087Z,57.30
2017-11-17T22:17:25.317Z,57.40
2017-11-17T22:19:52.845Z,57.40
2017-11-17T22:22:20.360Z,57.40
2017-11-17T22:24:48.476Z,57.50
2017-11-17T22:27:16.050Z,57.50
2017-11-17T22:29:43.495Z,57.40
2017-11-17T22:32:11.402Z,57.60
2017-11-17T22:34:39.400Z,57.70
2017-11-17T22:37:06.839Z,57.70
2017-11-17T22:39:34.318Z,57.70
2017-11-17T22:42:01.816Z,57.70
2017-11-17T22:44:29.272Z,57.80
2017-11-17T22:46:56.712Z,57.80
2017-11-17T22:49:24.899Z,58.10
2017-11-17T22:51:52.360Z,58.00
2017-11-17T22:54:19.823Z,58.10
2017-11-17T22:56:47.375Z,58.30
2017-11-17T22:59:14.866Z,58.20
2017-11-17T23:01:42.842Z,58.30
2017-11-17T23:04:11.719Z,58.60
2017-11-17T23:06:39.968Z,58.60
2017-11-17T23:09:07.560Z,58.50
2017-11-17T23:11:35.010Z,58.50
2017-11-17T23:14:02.448Z,58.50
2017-11-17T23:16:29.916Z,58.60
2017-11-17T23:18:57.778Z,58.90
2017-11-17T23:21:25.230Z,59.20
2017-11-17T23:23:52.705Z,59.40
2017-11-17T23:26:20.180Z,59.40
2017-11-17T23:28:47.938Z,59.60
2017-11-17T23:31:15.812Z,59.70
2017-11-17T23:33:43.903Z,59.70
2017-11-17T23:36:12.154Z,59.70
2017-11-17T23:38:39.631Z,59.70
2017-11-17T23:41:07.970Z,59.80
2017-11-17T23:43:35.495Z,59.70
2017-11-17T23:46:02.925Z,59.70
2017-11-17T23:48:31.187Z,60.00
2017-11-17T23:51:00.673Z,60.10
2017-11-17T23:53:29.359Z,60.20
2017-11-17T23:55:56.874Z,60.20
2017-11-17T23:58:24.434Z,60.30
